Time;durP1;ratioP1;P1;durP2;ratioP2;P2;SDS_P1;SDS_P2;PMS_P1;PMS_P2;Temp;Humidity;BMP_temperature;BMP_pressure;BME280_temperature;BME280_humidity;BME280_pressure;Samples;Min_cycle;Max_cycle;Signal;HPM_P1;HPM_P2
2020/12/06 00:01:18;;;;;;;53.55;21.95;;;;;;;-2.62;97.70;100897.03;1861150;77;21381;-68
2020/12/06 00:03:47;;;;;;;55.45;23.00;;;;;;;-2.64;98.05;100905.80;1861093;77;21537;-68
2020/12/06 00:06:20;;;;;;;57.53;23.00;;;;;;;-2.69;97.87;100901.84;1820885;78;20997;-68
2020/12/06 00:08:50;;;;;;;53.85;22.25;;;;;;;-2.75;97.83;100906.66;1812328;78;20884;-68
2020/12/06 00:11:18;;;;;;;53.13;21.33;;;;;;;-2.79;97.88;100901.36;1790736;80;20940;-70
2020/12/06 00:13:46;;;;;;;55.12;22.15;;;;;;;-2.82;98.12;100912.50;1790887;80;21213;-71
2020/12/06 00:16:15;;;;;;;53.25;21.10;;;;;;;-2.85;98.14;100912.05;1790769;80;20991;-72
2020/12/06 00:18:45;;;;;;;48.50;21.73;;;;;;;-2.89;98.13;100918.36;1790838;80;21137;-71
2020/12/06 00:21:18;;;;;;;48.80;20.37;;;;;;;-2.92;98.33;100914.72;1790823;80;21066;-71
2020/12/06 00:23:46;;;;;;;46.15;18.95;;;;;;;-2.95;98.33;100917.80;1790896;80;21026;-69
2020/12/06 00:26:16;;;;;;;43.10;18.52;;;;;;;-3.00;98.19;100910.83;1790864;80;21378;-69
2020/12/06 00:28:44;;;;;;;38.40;16.60;;;;;;;-3.05;98.08;100913.27;1792553;80;20975;-67
2020/12/06 00:31:12;;;;;;;38.58;15.95;;;;;;;-3.06;98.38;100915.12;1756703;81;21029;-67
2020/12/06 00:33:39;;;;;;;39.20;16.45;;;;;;;-3.10;98.21;100911.67;1756625;81;20946;-67
2020/12/06 00:36:11;;;;;;;43.15;17.07;;;;;;;-3.15;98.05;100908.73;1756547;81;21061;-68
2020/12/06 00:38:40;;;;;;;40.23;15.23;;;;;;;-3.20;97.89;100905.79;1756760;81;21448;-67
2020/12/06 00:41:12;;;;;;;34.50;14.55;;;;;;;-3.23;97.81;100903.49;1756532;81;21089;-67
2020/12/06 00:43:40;;;;;;;41.23;15.43;;;;;;;-3.28;97.63;100905.92;1756739;81;20942;-67
2020/12/06 00:46:08;;;;;;;39.13;15.35;;;;;;;-3.32;97.44;100902.28;1756708;81;21476;-68
2020/12/06 00:48:35;;;;;;;31.05;13.38;;;;;;;-3.36;97.21;100901.00;1756583;81;21152;-68
2020/12/06 00:51:04;;;;;;;39.78;15.98;;;;;;;-3.41;97.11;100898.05;1756731;81;22284;-67
2020/12/06 00:53:33;;;;;;;33.65;15.03;;;;;;;-3.44;97.06;100901.13;1756562;81;21017;-67
2020/12/06 00:56:03;;;;;;;35.90;14.60;;;;;;;-3.45;97.09;100909.37;1756833;81;20951;-69
2020/12/06 00:58:32;;;;;;;39.95;15.08;;;;;;;-3.49;96.93;100908.95;1757136;81;21386;-68
2020/12/06 01:00:59;;;;;;;35.00;14.45;;;;;;;-3.52;96.78;100903.96;1757151;81;20934;-68
2020/12/06 01:03:27;;;;;;;33.70;14.58;;;;;;;-3.56;96.64;100904.02;1757154;81;21575;-68
2020/12/06 01:05:54;;;;;;;35.52;15.00;;;;;;;-3.58;96.54;100903.89;1756948;81;21977;-68
2020/12/06 01:08:22;;;;;;;30.75;13.93;;;;;;;-3.61;96.48;100902.42;1756579;81;21029;-68
2020/12/06 01:10:51;;;;;;;32.65;13.25;;;;;;;-3.64;96.37;100908.67;1756587;81;21473;-68
2020/12/06 01:13:19;;;;;;;40.00;15.25;;;;;;;-3.68;96.30;100902.86;1756701;81;20926;-67
2020/12/06 01:15:47;;;;;;;35.23;15.53;;;;;;;-3.70;96.37;100890.14;1756808;81;21387;-68
2020/12/06 01:18:15;;;;;;;39.03;14.60;;;;;;;-3.72;96.43;100892.18;1757285;81;20997;-68
2020/12/06 01:20:42;;;;;;;33.53;13.43;;;;;;;-3.73;96.40;100898.57;1757017;81;21037;-68
2020/12/06 01:23:10;;;;;;;36.65;15.35;;;;;;;-3.77;95.86;100900.80;1756925;81;21492;-67
2020/12/06 01:25:38;;;;;;;38.50;15.10;;;;;;;-3.79;96.00;100897.47;1756749;81;21071;-67
2020/12/06 01:28:06;;;;;;;39.38;13.43;;;;;;;-3.81;95.72;100899.52;1756819;81;21415;-67
2020/12/06 01:30:33;;;;;;;34.53;14.95;;;;;;;-3.86;95.33;100898.41;1756659;80;20994;-67
2020/12/06 01:33:01;;;;;;;38.17;15.55;;;;;;;-3.87;95.45;100902.12;1756776;81;20957;-67
2020/12/06 01:35:28;;;;;;;36.60;14.03;;;;;;;-3.90;95.21;100907.86;1756527;81;21064;-68
2020/12/06 01:37:56;;;;;;;32.58;13.83;;;;;;;-3.92;95.00;100901.85;1756560;81;21006;-68
2020/12/06 01:40:24;;;;;;;30.40;13.65;;;;;;;-3.96;94.89;100905.93;1756608;81;21370;-68
2020/12/06 01:42:52;;;;;;;36.35;14.55;;;;;;;-4.00;94.86;100911.67;1756524;81;21687;-68
2020/12/06 01:45:19;;;;;;;27.67;10.98;;;;;;;-4.02;94.76;100911.02;1756559;81;20934;-67
2020/12/06 01:47:47;;;;;;;34.95;13.43;;;;;;;-4.06;94.25;100905.74;1756590;81;20950;-67
2020/12/06 01:50:15;;;;;;;32.73;12.95;;;;;;;-4.09;94.25;100911.48;1756577;81;21156;-67
2020/12/06 01:52:43;;;;;;;41.75;13.78;;;;;;;-4.09;94.20;100909.31;1756586;81;21204;-68
2020/12/06 01:55:13;;;;;;;39.15;14.23;;;;;;;-4.12;93.88;100913.70;1756299;81;21089;-68
2020/12/06 01:57:41;;;;;;;34.30;14.30;;;;;;;-4.16;93.67;100908.39;1756691;81;21492;-67
2020/12/06 02:00:08;;;;;;;41.30;12.37;;;;;;;-4.20;93.67;100907.09;1756553;81;20958;-67
2020/12/06 02:02:36;;;;;;;34.15;12.95;;;;;;;-4.20;93.67;100899.89;1756607;81;21559;-68
2020/12/06 02:05:04;;;;;;;38.08;14.43;;;;;;;-4.22;93.56;100911.81;1756626;81;21168;-67
2020/12/06 02:07:32;;;;;;;37.55;14.43;;;;;;;-4.25;93.51;100909.51;1757759;79;20950;-69
2020/12/06 02:10:00;;;;;;;35.68;11.83;;;;;;;-4.28;93.45;100920.60;1756652;81;21141;-69
2020/12/06 02:12:28;;;;;;;31.25;11.45;;;;;;;-4.30;93.56;100920.78;1756481;81;20938;-69
2020/12/06 02:14:56;;;;;;;37.35;12.55;;;;;;;-4.32;93.54;100921.48;1756554;81;21112;-69
2020/12/06 02:17:26;;;;;;;36.13;12.73;;;;;;;-4.34;93.46;100928.37;1767512;80;21436;-68
2020/12/06 02:19:55;;;;;;;34.40;12.70;;;;;;;-4.36;93.40;100923.70;1787669;80;20958;-69
2020/12/06 02:22:22;;;;;;;38.33;13.18;;;;;;;-4.39;93.47;100914.69;1787622;80;21552;-69
2020/12/06 02:24:50;;;;;;;39.25;14.05;;;;;;;-4.42;93.43;100917.73;1787665;80;20950;-69
2020/12/06 02:27:17;;;;;;;31.20;12.20;;;;;;;-4.45;93.38;100918.61;1787695;80;20989;-68
2020/12/06 02:29:45;;;;;;;29.57;12.70;;;;;;;-4.48;93.59;100920.32;1787644;80;22707;-68
2020/12/06 02:32:12;;;;;;;29.87;12.23;;;;;;;-4.50;93.50;100922.36;1787614;80;21053;-68
2020/12/06 02:34:40;;;;;;;31.85;12.18;;;;;;;-4.53;93.33;100923.55;1787639;80;21073;-68
2020/12/06 02:37:07;;;;;;;37.58;12.70;;;;;;;-4.54;93.65;100927.25;1779945;80;20943;-68
2020/12/06 02:39:36;;;;;;;35.58;13.35;;;;;;;-4.55;93.47;100931.45;1756558;81;21579;-68
2020/12/06 02:42:04;;;;;;;41.20;13.03;;;;;;;-4.58;93.36;100926.45;1756523;81;21588;-68
2020/12/06 02:44:32;;;;;;;39.58;11.53;;;;;;;-4.61;93.30;100928.16;1756457;81;20958;-68
2020/12/06 02:47:01;;;;;;;32.93;13.28;;;;;;;-4.62;93.67;100926.53;1756479;81;21093;-68
2020/12/06 02:49:28;;;;;;;31.37;12.58;;;;;;;-4.64;93.46;100928.56;1756493;81;20942;-68
2020/12/06 02:51:58;;;;;;;29.20;11.80;;;;;;;-4.69;93.35;100925.92;1731600;81;20931;-68
2020/12/06 02:54:27;;;;;;;25.82;11.25;;;;;;;-4.72;93.20;100928.97;1756538;81;21367;-67
2020/12/06 02:56:56;;;;;;;25.65;12.23;;;;;;;-4.74;92.98;100930.16;1755912;81;21033;-68
2020/12/06 02:59:24;;;;;;;30.20;12.25;;;;;;;-4.76;92.85;100933.53;1755972;81;21140;-68
2020/12/06 03:01:51;;;;;;;34.80;12.65;;;;;;;-4.79;92.68;100942.77;1756016;81;21508;-68
2020/12/06 03:04:21;;;;;;;24.12;11.10;;;;;;;-4.81;92.96;100936.75;1755963;81;20958;-68
2020/12/06 03:06:48;;;;;;;31.90;12.10;;;;;;;-4.82;92.85;100944.47;1756076;81;22470;-69
2020/12/06 03:09:16;;;;;;;32.60;11.90;;;;;;;-4.85;92.65;100942.15;1755953;81;21005;-68
2020/12/06 03:11:44;;;;;;;27.65;10.70;;;;;;;-4.87;92.64;100942.84;1755968;81;21006;-68
2020/12/06 03:14:12;;;;;;;29.92;12.60;;;;;;;-4.87;92.99;100944.17;1755964;81;21504;-69
2020/12/06 03:16:40;;;;;;;25.62;11.73;;;;;;;-4.90;92.73;100940.52;1758450;80;21029;-68
2020/12/06 03:19:08;;;;;;;28.30;11.05;;;;;;;-4.94;92.69;100949.10;1787120;80;21369;-69
2020/12/06 03:21:35;;;;;;;31.75;11.70;;;;;;;-4.97;92.65;100945.44;1787036;80;21013;-68
2020/12/06 03:24:03;;;;;;;29.63;11.53;;;;;;;-4.99;92.67;100950.98;1758489;80;21172;-69
2020/12/06 03:26:31;;;;;;;35.70;11.28;;;;;;;-5.02;92.53;100950.83;1787090;80;21516;-68
2020/12/06 03:28:58;;;;;;;31.90;11.40;;;;;;;-5.06;92.42;100946.84;1787034;80;20879;-68
2020/12/06 03:31:29;;;;;;;31.23;11.48;;;;;;;-5.10;92.25;100952.73;1787146;80;21333;-68
2020/12/06 03:33:56;;;;;;;34.35;11.57;;;;;;;-5.14;92.24;100945.57;1787054;80;21021;-69
2020/12/06 03:36:23;;;;;;;27.40;11.20;;;;;;;-5.17;92.31;100940.58;1787048;80;21010;-68
2020/12/06 03:38:51;;;;;;;25.02;10.55;;;;;;;-5.18;92.32;100951.47;1787071;80;20927;-68
2020/12/06 03:41:21;;;;;;;29.65;11.18;;;;;;;-5.21;92.35;100952.69;1787090;80;20898;-68
2020/12/06 03:43:48;;;;;;;31.00;11.03;;;;;;;-5.23;92.35;100956.55;1787113;80;21358;-68
2020/12/06 03:46:16;;;;;;;25.52;11.28;;;;;;;-5.25;92.11;100954.05;1787037;80;21560;-68
2020/12/06 03:48:44;;;;;;;31.68;10.08;;;;;;;-5.26;92.06;100956.41;1787059;80;20994;-69
2020/12/06 03:51:11;;;;;;;26.57;11.35;;;;;;;-5.26;92.10;100959.08;1787046;80;21769;-68
2020/12/06 03:53:39;;;;;;;25.95;10.60;;;;;;;-5.28;91.73;100958.94;1787049;80;20946;-69
2020/12/06 03:56:06;;;;;;;24.87;10.48;;;;;;;-5.29;91.48;100958.61;1788144;80;21487;-68
2020/12/06 03:58:34;;;;;;;23.22;9.73;;;;;;;-5.32;91.53;100955.27;1790340;79;21096;-69
2020/12/06 04:01:01;;;;;;;24.35;10.08;;;;;;;-5.34;91.36;100953.78;1790421;79;20938;-68
2020/12/06 04:03:29;;;;;;;23.20;10.15;;;;;;;-5.37;90.90;100954.97;1790471;80;21488;-68
2020/12/06 04:05:57;;;;;;;31.48;11.45;;;;;;;-5.39;91.01;100954.31;1768525;80;21002;-68
2020/12/06 04:08:25;;;;;;;20.35;9.05;;;;;;;-5.40;91.02;100951.31;1763784;80;21381;-68
2020/12/06 04:10:52;;;;;;;25.30;10.15;;;;;;;-5.41;90.46;100961.69;1774320;80;21152;-69
2020/12/06 04:13:20;;;;;;;22.50;10.00;;;;;;;-5.43;90.27;100959.70;1759251;81;21501;-68
2020/12/06 04:15:48;;;;;;;23.95;9.45;;;;;;;-5.45;90.30;100959.55;1759125;81;20974;-68
2020/12/06 04:18:15;;;;;;;25.57;10.30;;;;;;;-5.47;90.03;100956.21;1759181;81;21544;-68
2020/12/06 04:20:43;;;;;;;25.12;10.48;;;;;;;-5.49;89.99;100952.37;1759165;81;22704;-68
2020/12/06 04:23:11;;;;;;;28.70;10.80;;;;;;;-5.50;89.97;100952.05;1759059;81;20946;-68
2020/12/06 04:25:39;;;;;;;28.30;10.18;;;;;;;-5.51;90.36;100951.72;1759172;81;20942;-69
2020/12/06 04:28:10;;;;;;;26.10;9.78;;;;;;;-5.51;90.21;100950.89;1759105;81;21065;-68
2020/12/06 04:30:40;;;;;;;22.15;9.68;;;;;;;-5.53;90.10;100955.08;1758549;80;21108;-69
2020/12/06 04:33:08;;;;;;;20.60;9.68;;;;;;;-5.57;89.83;100951.09;1737118;82;22862;-69
2020/12/06 04:35:35;;;;;;;28.70;9.90;;;;;;;-5.58;89.77;100957.45;1758501;81;21148;-68
2020/12/06 04:38:03;;;;;;;29.00;10.38;;;;;;;-5.58;89.94;100959.29;1767650;80;21573;-68
2020/12/06 04:40:31;;;;;;;27.75;11.15;;;;;;;-5.59;89.76;100953.11;1778366;80;21215;-68
2020/12/06 04:42:59;;;;;;;26.73;10.35;;;;;;;-5.60;89.89;100954.11;1785826;80;21056;-68
2020/12/06 04:45:26;;;;;;;28.55;10.95;;;;;;;-5.61;89.70;100946.27;1761044;80;21328;-68
2020/12/06 04:48:05;;;;;;;24.70;9.98;;;;;;;-5.62;89.78;100949.44;1789523;80;21128;-68
2020/12/06 04:50:37;;;;;;;25.05;9.70;;;;;;;-5.65;89.76;100943.11;1789652;80;21037;-69
2020/12/06 04:53:06;;;;;;;29.45;9.38;;;;;;;-5.65;89.74;100954.64;1789376;80;21187;-69
2020/12/06 04:55:36;;;;;;;25.08;9.70;;;;;;;-5.66;89.46;100948.13;1789488;80;21139;-68
2020/12/06 04:58:04;;;;;;;25.43;10.55;;;;;;;-5.68;89.34;100948.30;1789774;80;22320;-68
2020/12/06 05:00:36;;;;;;;22.35;8.80;;;;;;;-5.68;89.28;100956.33;1789533;80;21085;-68
2020/12/06 05:03:08;;;;;;;30.20;10.28;;;;;;;-5.70;89.11;100956.17;1789628;80;20938;-68
2020/12/06 05:05:39;;;;;;;27.48;9.10;;;;;;;-5.74;89.09;100956.20;1789883;80;20990;-69
2020/12/06 05:08:12;;;;;;;25.02;9.30;;;;;;;-5.74;89.66;100960.21;1788017;80;21623;-69
2020/12/06 05:10:47;;;;;;;27.22;10.35;;;;;;;-5.75;89.30;100959.37;1789138;80;21484;-68
2020/12/06 05:13:15;;;;;;;30.82;10.35;;;;;;;-5.76;89.22;100962.23;1789583;80;21587;-69
2020/12/06 05:15:46;;;;;;;25.27;10.55;;;;;;;-5.78;89.35;100966.95;1763440;79;20986;-68
2020/12/06 05:18:14;;;;;;;19.45;9.33;;;;;;;-5.79;89.76;100965.28;1779357;80;22056;-68
2020/12/06 05:20:42;;;;;;;26.52;11.20;;;;;;;-5.82;89.56;100972.31;1792154;80;21053;-68
2020/12/06 05:23:09;;;;;;;26.68;10.48;;;;;;;-5.85;89.57;100972.16;1791800;79;22847;-68
2020/12/06 05:25:37;;;;;;;21.97;9.35;;;;;;;-5.86;90.02;100975.02;1732779;80;21881;-69
2020/12/06 05:28:07;;;;;;;21.65;9.15;;;;;;;-5.86;90.09;100979.02;1789302;80;21065;-69
2020/12/06 05:30:40;;;;;;;24.05;10.13;;;;;;;-5.88;90.04;100988.55;1760810;80;21128;-69
2020/12/06 05:33:09;;;;;;;22.90;10.28;;;;;;;-5.91;89.96;100984.92;1789657;80;21663;-68
2020/12/06 05:35:37;;;;;;;29.32;9.95;;;;;;;-5.92;90.48;100989.94;1761410;80;21204;-68
2020/12/06 05:38:04;;;;;;;26.77;10.38;;;;;;;-5.95;90.29;100995.64;1736487;80;21543;-68
2020/12/06 05:40:32;;;;;;;23.57;10.50;;;;;;;-6.00;90.42;100992.65;1792255;80;21188;-69
2020/12/06 05:43:00;;;;;;;28.17;10.60;;;;;;;-6.03;90.99;100993.83;1792023;80;20942;-69
2020/12/06 05:45:28;;;;;;;25.85;9.55;;;;;;;-6.04;91.01;100990.82;1792177;80;21480;-68
2020/12/06 05:47:55;;;;;;;25.65;11.30;;;;;;;-6.06;90.86;100991.50;1790713;79;21960;-66
2020/12/06 05:50:23;;;;;;;25.02;9.78;;;;;;;-6.08;90.79;100998.86;1735230;80;21200;-71
2020/12/06 05:52:51;;;;;;;32.10;9.98;;;;;;;-6.10;90.99;101000.03;1787903;80;21152;-69
2020/12/06 05:55:18;;;;;;;21.40;9.13;;;;;;;-6.11;91.02;101001.88;1761123;80;20933;-73
2020/12/06 05:57:47;;;;;;;23.55;10.18;;;;;;;-6.13;90.92;101001.21;1741097;80;21595;-71
2020/12/06 06:00:15;;;;;;;34.90;10.80;;;;;;;-6.14;91.04;101004.05;1792834;80;23671;-73
2020/12/06 06:05:21;;;;;;;23.70;9.68;;;;;;;-6.08;91.17;101006.87;1873299;76;22695;-71
2020/12/06 06:07:49;;;;;;;32.23;11.33;;;;;;;-6.15;90.94;101005.89;1813309;76;21449;-69
2020/12/06 06:10:18;;;;;;;33.78;11.88;;;;;;;-6.15;91.04;101006.39;1794846;79;21602;-72
2020/12/06 06:12:50;;;;;;;34.55;10.95;;;;;;;-6.15;91.08;101008.57;1808396;79;21647;-78
2020/12/06 06:15:18;;;;;;;31.12;10.70;;;;;;;-6.15;91.11;101009.07;1808464;79;20893;-72
2020/12/06 06:17:45;;;;;;;26.55;10.28;;;;;;;-6.14;91.09;101010.73;1794460;77;20976;-74
2020/12/06 06:20:13;;;;;;;27.27;10.50;;;;;;;-6.12;91.58;101020.26;1785457;78;20939;-75
2020/12/06 06:22:43;;;;;;;23.25;9.50;;;;;;;-6.11;91.36;101013.06;1841070;78;21186;-76
2020/12/06 06:25:11;;;;;;;30.85;10.43;;;;;;;-6.12;91.20;101013.57;1841391;78;21701;-71
2020/12/06 06:27:40;;;;;;;23.90;9.55;;;;;;;-6.10;91.42;101023.59;1785400;78;20916;-78
2020/12/06 06:30:10;;;;;;;26.80;10.35;;;;;;;-6.05;91.71;101025.25;1823018;78;21478;-81
2020/12/06 06:32:38;;;;;;;21.05;9.08;;;;;;;-6.03;91.56;101027.25;1808707;79;20908;-77
2020/12/06 06:35:08;;;;;;;23.73;9.15;;;;;;;-6.02;91.39;101032.92;1779725;79;21650;-76
2020/12/06 06:37:37;;;;;;;19.90;8.85;;;;;;;-5.86;91.79;101028.00;1808559;79;21015;-74
2020/12/06 06:40:07;;;;;;;25.90;10.43;;;;;;;-5.73;91.19;101033.60;1808609;78;21003;-74
2020/12/06 06:42:37;;;;;;;21.75;9.15;;;;;;;-5.56;90.53;101032.19;1797024;79;20984;-77
2020/12/06 06:45:08;;;;;;;20.32;9.10;;;;;;;-5.34;89.94;101036.77;1775084;80;21004;-76
2020/12/06 06:47:40;;;;;;;24.05;9.03;;;;;;;-5.03;89.33;101036.70;1775225;80;22236;-72
2020/12/06 06:50:11;;;;;;;;;;;;;;;-4.81;87.10;101034.54;1777545;80;21009;-76
2020/12/06 06:52:41;;;;;;;20.72;8.03;;;;;;;-4.64;86.11;101043.79;1775135;80;20139;-73
2020/12/06 06:55:09;;;;;;;24.30;8.90;;;;;;;-4.47;86.56;101030.55;1791378;79;20928;-74
2020/12/06 06:57:40;;;;;;;21.60;9.28;;;;;;;-4.27;85.29;101034.88;1806967;79;20927;-73
2020/12/06 07:00:07;;;;;;;22.20;7.67;;;;;;;-4.13;84.55;101036.75;1781015;79;21203;-77
2020/12/06 07:02:37;;;;;;;20.27;8.35;;;;;;;-4.10;83.37;101027.83;1784402;79;21082;-75
2020/12/06 07:05:14;;;;;;;22.10;9.18;;;;;;;-4.12;83.30;101033.88;1806806;79;21514;-74
2020/12/06 07:07:50;;;;;;;22.95;8.03;;;;;;;-4.14;82.86;101033.23;1806961;79;21473;-74
2020/12/06 07:10:23;;;;;;;25.68;8.78;;;;;;;-4.09;83.08;101032.17;1806895;79;21093;-78
2020/12/06 07:12:56;;;;;;;24.87;10.48;;;;;;;-4.02;83.82;101033.58;1828991;78;21338;-74
2020/12/06 07:15:26;;;;;;;24.70;8.90;;;;;;;-3.86;83.35;101032.57;1830524;78;21127;-75
2020/12/06 07:17:55;;;;;;;24.05;10.35;;;;;;;-3.76;81.78;101036.64;1830297;78;21575;-69
2020/12/06 07:20:25;;;;;;;19.02;8.35;;;;;;;-3.64;80.98;101037.00;1830234;78;21158;-74
2020/12/06 07:22:53;;;;;;;26.52;8.68;;;;;;;-3.40;81.32;101038.00;1830210;78;21007;-71
2020/12/06 07:25:22;;;;;;;16.65;8.68;;;;;;;-3.15;79.52;101039.02;1830124;78;21394;-72
2020/12/06 07:27:50;;;;;;;21.07;8.70;;;;;;;-2.98;78.88;101043.13;1830218;78;21507;-72
2020/12/06 07:30:19;;;;;;;19.73;8.35;;;;;;;-2.75;78.78;101038.37;1830141;78;20972;-73
2020/12/06 07:32:47;;;;;;;21.50;9.18;;;;;;;-2.47;77.39;101041.61;1830098;78;21134;-72
2020/12/06 07:35:15;;;;;;;18.27;8.75;;;;;;;-2.30;75.32;101042.14;1830170;78;20933;-72
2020/12/06 07:37:45;;;;;;;18.15;8.08;;;;;;;-2.22;75.47;101042.83;1825961;78;22303;-72
2020/12/06 07:40:13;;;;;;;16.37;8.85;;;;;;;-2.07;74.31;101046.25;1807512;79;20909;-72
2020/12/06 07:42:40;;;;;;;22.75;9.18;;;;;;;-1.97;73.20;101045.06;1807538;79;20944;-73
2020/12/06 07:45:08;;;;;;;19.77;7.83;;;;;;;-1.88;73.84;101051.96;1807566;79;21071;-71
2020/12/06 07:47:36;;;;;;;19.70;6.55;;;;;;;-1.70;72.88;101048.20;1807790;78;21071;-72
2020/12/06 07:50:06;;;;;;;13.80;7.12;;;;;;;-1.53;73.22;101050.89;1807674;79;21193;-72
2020/12/06 07:52:36;;;;;;;21.85;7.17;;;;;;;-1.32;70.49;101047.25;1807763;79;21158;-73
2020/12/06 07:55:06;;;;;;;76.33;33.48;;;;;;;-1.22;70.43;101052.27;1807709;79;21042;-73
2020/12/06 07:57:51;;;;;;;59.15;21.70;;;;;;;-1.12;69.71;101049.47;1807287;79;21102;-73
2020/12/06 08:00:37;;;;;;;65.62;22.77;;;;;;;-1.10;68.81;101047.92;1808007;79;20928;-74
2020/12/06 08:03:01;;;;;;;45.52;17.32;;;;;;;-1.28;67.23;101039.59;1807668;79;21525;-74
2020/12/06 08:05:32;;;;;;;61.83;31.07;;;;;;;-1.32;68.73;101045.08;1780496;79;21066;-74
2020/12/06 08:08:12;;;;;;;19.17;8.20;;;;;;;-1.24;68.92;101052.47;1797421;79;21505;-72
2020/12/06 08:10:40;;;;;;;18.70;7.75;;;;;;;-1.24;67.09;101055.67;1797554;79;20935;-72
2020/12/06 08:13:11;;;;;;;15.80;6.95;;;;;;;-1.22;67.40;101058.48;1797586;79;20943;-74
2020/12/06 08:15:39;;;;;;;18.20;7.20;;;;;;;-1.20;67.87;101056.42;1797526;79;21501;-73
2020/12/06 08:18:17;;;;;;;16.87;7.53;;;;;;;-1.01;68.03;101061.53;1797498;79;21101;-75
2020/12/06 08:20:54;;;;;;;17.50;7.08;;;;;;;-0.85;67.44;101061.16;1797550;79;20993;-75
2020/12/06 08:23:36;;;;;;;15.90;6.45;;;;;;;-0.70;67.84;101056.42;1797464;79;20876;-74
2020/12/06 08:26:04;;;;;;;15.35;6.87;;;;;;;-0.57;64.97;101048.83;1792040;78;20998;-77
2020/12/06 08:28:32;;;;;;;18.82;7.28;;;;;;;-0.59;66.77;101054.16;1764354;80;21204;-75
2020/12/06 08:31:00;;;;;;;12.85;6.50;;;;;;;-0.56;68.06;101045.09;1796272;78;21509;-75
2020/12/06 08:33:28;;;;;;;20.97;8.40;;;;;;;-0.58;65.70;101049.90;1797511;79;20919;-74
2020/12/06 08:35:56;;;;;;;39.58;13.72;;;;;;;-0.53;65.96;101051.44;1797759;79;20979;-73
2020/12/06 08:38:31;;;;;;;32.75;10.13;;;;;;;-0.40;64.99;101060.88;1797692;79;21629;-74
2020/12/06 08:41:04;;;;;;;18.92;7.62;;;;;;;-0.22;66.14;101055.39;1797530;79;21176;-73
2020/12/06 08:43:53;;;;;;;20.92;7.72;;;;;;;-0.12;62.82;101050.40;1797477;79;21498;-73
2020/12/06 08:46:25;;;;;;;23.92;10.32;;;;;;;-0.10;63.10;101050.50;1797501;79;20932;-73
2020/12/06 08:48:56;;;;;;;20.70;7.30;;;;;;;-0.05;63.55;101053.92;1797829;79;20923;-72
2020/12/06 08:51:38;;;;;;;18.52;8.10;;;;;;;0.07;63.37;101040.58;1796910;79;21133;-72
2020/12/06 08:54:08;;;;;;;18.42;7.62;;;;;;;0.18;62.91;101040.77;1797344;78;21209;-81
2020/12/06 08:56:38;;;;;;;19.57;8.80;;;;;;;0.17;62.51;101035.58;1797342;78;20986;-75
2020/12/06 08:59:14;;;;;;;15.25;7.60;;;;;;;0.20;62.66;101034.64;1797360;79;21028;-77
2020/12/06 09:01:54;;;;;;;16.35;7.47;;;;;;;0.15;62.15;101029.04;1787451;79;20928;-77
2020/12/06 09:04:22;;;;;;;20.10;8.00;;;;;;;0.07;62.47;101029.78;1774023;79;21106;-74
2020/12/06 09:06:52;;;;;;;19.92;7.67;;;;;;;0.04;61.34;101036.95;1802096;79;21629;-76
2020/12/06 09:09:20;;;;;;;13.75;6.78;;;;;;;0.04;61.23;101024.80;1807832;79;21518;-74
2020/12/06 09:11:55;;;;;;;16.30;6.80;;;;;;;0.13;61.05;101027.59;1774405;80;20991;-81
2020/12/06 09:14:23;;;;;;;45.20;17.15;;;;;;;0.18;60.84;101023.73;1774448;80;20936;-81
2020/12/06 09:16:51;;;;;;;48.83;20.68;;;;;;;0.27;62.13;101027.34;1774359;80;20933;-79
2020/12/06 09:19:18;;;;;;;22.50;11.40;;;;;;;0.38;60.63;101023.69;1774400;80;21378;-73
2020/12/06 09:21:46;;;;;;;35.65;17.75;;;;;;;0.59;62.55;101016.09;1777833;79;21131;-73
2020/12/06 09:24:13;;;;;;;23.62;10.95;;;;;;;0.82;60.48;101021.50;1793576;79;20966;-74
2020/12/06 09:26:41;;;;;;;18.92;9.13;;;;;;;0.98;60.86;101022.35;1795543;78;21151;-73
2020/12/06 09:29:08;;;;;;;36.90;11.53;;;;;;;1.15;59.95;101022.14;1817885;77;20908;-73
2020/12/06 09:31:36;;;;;;;29.30;10.60;;;;;;;1.42;60.20;101017.88;1796440;78;21389;-72
2020/12/06 09:34:04;;;;;;;20.23;8.48;;;;;;;1.60;58.55;101013.36;1805217;79;21051;-73
2020/12/06 09:36:34;;;;;;;16.10;7.03;;;;;;;1.65;59.01;101014.05;1793325;79;21310;-74
2020/12/06 09:39:03;;;;;;;19.10;7.90;;;;;;;1.65;56.57;101005.40;1803915;79;20954;-74
2020/12/06 09:41:33;;;;;;;18.17;7.47;;;;;;;1.51;58.38;101006.56;1797177;79;21072;-73
2020/12/06 09:44:04;;;;;;;18.70;8.58;;;;;;;1.50;57.95;101008.13;1797313;78;21353;-73
2020/12/06 09:46:30;;;;;;;14.15;6.08;;;;;;;1.51;57.24;101001.67;1797468;79;20948;-73
2020/12/06 09:48:58;;;;;;;16.97;8.05;;;;;;;1.44;57.45;101005.78;1802704;78;20932;-74
2020/12/06 09:51:26;;;;;;;14.68;7.25;;;;;;;1.55;58.35;101001.53;1807848;79;20988;-72
2020/12/06 09:53:53;;;;;;;16.75;8.03;;;;;;;1.84;57.52;100999.47;1808005;79;21649;-73
2020/12/06 09:56:29;;;;;;;15.90;9.35;;;;;;;1.96;58.29;101003.11;1807827;78;21357;-73
2020/12/06 09:58:57;;;;;;;18.67;9.15;;;;;;;2.10;56.74;101002.45;1778478;79;20967;-73
2020/12/06 10:01:24;;;;;;;26.40;14.20;;;;;;;2.15;57.79;100993.64;1795267;79;21150;-73
2020/12/06 10:03:52;;;;;;;41.98;20.85;;;;;;;2.33;56.99;100996.33;1774313;80;20932;-73
2020/12/06 10:06:26;;;;;;;31.73;18.73;;;;;;;2.40;55.59;100992.19;1783324;77;21169;-72
2020/12/06 10:08:53;;;;;;;24.12;10.93;;;;;;;2.35;56.67;100989.33;1801986;79;21449;-73
2020/12/06 10:11:22;;;;;;;32.60;14.30;;;;;;;2.54;58.40;100982.31;1779784;80;21507;-73
2020/12/06 10:13:50;;;;;;;29.45;12.25;;;;;;;2.69;55.13;100979.73;1779875;80;20881;-71
2020/12/06 10:16:17;;;;;;;39.78;18.75;;;;;;;2.49;53.82;100984.05;1779843;80;21157;-72
2020/12/06 10:18:45;;;;;;;30.55;12.10;;;;;;;2.15;53.96;100978.22;1779840;80;21150;-72
2020/12/06 10:21:13;;;;;;;25.70;9.55;;;;;;;1.96;54.23;100975.19;1779911;80;21818;-72
2020/12/06 10:23:41;;;;;;;19.70;8.05;;;;;;;1.89;55.98;100975.27;1779761;80;20948;-72
2020/12/06 10:26:11;;;;;;;17.87;8.28;;;;;;;1.94;55.73;100960.52;1779849;80;20932;-72
2020/12/06 10:28:39;;;;;;;16.48;7.58;;;;;;;1.86;55.36;100969.47;1754434;80;21502;-73
2020/12/06 10:31:06;;;;;;;17.32;7.40;;;;;;;1.88;56.56;100963.30;1779805;80;21118;-73
2020/12/06 10:33:34;;;;;;;17.82;7.40;;;;;;;1.94;55.20;100965.11;1779840;80;21335;-73
2020/12/06 10:36:02;;;;;;;17.45;6.85;;;;;;;1.91;54.63;100962.33;1779719;80;21530;-73
2020/12/06 10:38:30;;;;;;;18.55;7.28;;;;;;;1.80;55.25;100960.88;1779879;80;21495;-73
2020/12/06 10:40:58;;;;;;;21.77;7.42;;;;;;;1.79;56.42;100951.93;1779886;80;21537;-73
2020/12/06 10:43:26;;;;;;;16.00;8.20;;;;;;;1.96;55.75;100958.42;1804779;77;21008;-70
2020/12/06 10:45:53;;;;;;;19.23;9.38;;;;;;;2.12;54.97;100950.22;1794700;79;21191;-73
2020/12/06 10:48:21;;;;;;;70.12;40.25;;;;;;;2.08;53.48;100954.44;1779794;80;20960;-73
2020/12/06 10:50:54;;;;;;;23.35;12.28;;;;;;;1.98;54.68;100959.02;1779846;80;20980;-73
2020/12/06 10:53:22;;;;;;;24.27;9.35;;;;;;;2.22;54.79;100953.77;1780133;80;21487;-73
2020/12/06 10:55:49;;;;;;;31.62;16.12;;;;;;;2.53;54.47;100956.26;1779357;80;21584;-73
2020/12/06 10:58:17;;;;;;;24.92;11.50;;;;;;;2.64;52.71;100964.98;1779813;80;21441;-73
2020/12/06 11:00:46;;;;;;;24.35;9.00;;;;;;;2.43;52.97;100952.44;1779837;80;21154;-73
2020/12/06 11:03:14;;;;;;;25.12;12.70;;;;;;;2.42;53.76;100949.42;1754485;80;21050;-73
2020/12/06 11:05:41;;;;;;;30.10;11.15;;;;;;;2.60;53.06;100946.69;1777147;80;20936;-73
2020/12/06 11:08:08;;;;;;;30.37;10.15;;;;;;;2.80;53.00;100940.46;1774505;80;20941;-73
2020/12/06 11:10:36;;;;;;;16.00;7.10;;;;;;;2.87;51.63;100943.08;1774503;80;21361;-73
2020/12/06 11:13:04;;;;;;;15.38;7.22;;;;;;;2.98;51.94;100938.19;1776738;78;21205;-73
2020/12/06 11:15:32;;;;;;;13.68;6.62;;;;;;;3.16;52.38;100945.42;1790852;79;21063;-73
2020/12/06 11:18:02;;;;;;;17.20;6.50;;;;;;;3.33;50.93;100946.94;1773156;80;21000;-73
2020/12/06 11:20:30;;;;;;;13.90;6.10;;;;;;;3.26;49.54;100947.05;1774469;80;21063;-74
2020/12/06 11:22:58;;;;;;;14.58;6.85;;;;;;;3.06;49.67;100938.38;1774468;80;22392;-72
2020/12/06 11:25:26;;;;;;;19.55;6.12;;;;;;;2.90;50.59;100939.88;1774479;80;21593;-71